Time;durP1;ratioP1;P1;durP2;ratioP2;P2;SDS_P1;SDS_P2;PMS_P1;PMS_P2;Temp;Humidity;BMP_temperature;BMP_pressure;BME280_temperature;BME280_humidity;BME280_pressure;Samples;Min_cycle;Max_cycle;Signal;HPM_P1;HPM_P2
2023/11/14 00:00:55;0.00;0.00;0.62;0.00;0.00;0.62;5.40;2.83;;;22.10;29.80;;;;;;2270723;61;20877;-57
2023/11/14 00:03:40;0.00;0.00;0.62;0.00;0.00;0.62;4.80;2.30;;;22.10;29.80;;;;;;2270634;61;20383;-60
2023/11/14 00:06:25;0.00;0.00;0.62;0.00;0.00;0.62;5.00;2.40;;;22.10;29.80;;;;;;2269881;61;20589;-61
2023/11/14 00:09:11;0.00;0.00;0.62;0.00;0.00;0.62;4.50;2.40;;;22.10;29.80;;;;;;2271509;61;20362;-54
2023/11/14 00:11:55;0.00;0.00;0.62;0.00;0.00;0.62;6.70;2.63;;;22.10;29.80;;;;;;2270410;61;20368;-54
2023/11/14 00:14:42;0.00;0.00;0.62;0.00;0.00;0.62;4.47;2.50;;;22.10;29.80;;;;;;2271221;61;20454;-55
2023/11/14 00:17:28;0.00;0.00;0.62;0.00;0.00;0.62;4.50;2.30;;;22.10;29.80;;;;;;2270804;61;20398;-57
2023/11/14 00:20:12;0.00;0.00;0.62;0.00;0.00;0.62;5.47;2.27;;;22.10;29.80;;;;;;2270216;61;20363;-64
2023/11/14 00:22:59;0.00;0.00;0.62;0.00;0.00;0.62;4.83;2.40;;;22.10;29.80;;;;;;2269229;61;20395;-58
2023/11/14 00:25:45;0.00;0.00;0.62;0.00;0.00;0.62;5.33;2.57;;;22.10;29.80;;;;;;2269744;61;20363;-59
2023/11/14 00:28:31;0.00;0.00;0.62;0.00;0.00;0.62;4.33;2.33;;;22.10;29.80;;;;;;2269272;61;20413;-61
2023/11/14 00:31:16;0.00;0.00;0.62;0.00;0.00;0.62;7.20;2.47;;;22.10;29.70;;;;;;2269380;61;20943;-59
2023/11/14 00:34:00;0.00;0.00;0.62;0.00;0.00;0.62;6.10;2.97;;;22.10;29.70;;;;;;2269734;61;20379;-56
2023/11/14 00:36:46;0.00;0.00;0.62;0.00;0.00;0.62;4.17;2.00;;;22.10;29.70;;;;;;2269951;61;20390;-59
2023/11/14 00:39:31;0.00;0.00;0.62;0.00;0.00;0.62;5.90;1.80;;;22.10;29.70;;;;;;2268899;61;20417;-56
2023/11/14 00:42:17;0.00;0.00;0.62;0.00;0.00;0.62;5.70;2.17;;;22.10;29.70;;;;;;2268755;61;20926;-57
2023/11/14 00:45:02;0.00;0.00;0.62;0.00;0.00;0.62;5.93;2.40;;;22.10;29.70;;;;;;2269150;61;20991;-58
2023/11/14 00:47:47;0.00;0.00;0.62;0.00;0.00;0.62;4.03;1.87;;;22.10;29.70;;;;;;2268160;61;20900;-57
2023/11/14 00:50:32;0.00;0.00;0.62;0.00;0.00;0.62;3.97;1.93;;;22.10;29.80;;;;;;2269122;61;20762;-58
2023/11/14 00:53:17;0.00;0.00;0.62;0.00;0.00;0.62;5.93;1.70;;;22.10;29.80;;;;;;2267750;61;20462;-59
2023/11/14 00:56:02;0.00;0.00;0.62;0.00;0.00;0.62;5.03;2.17;;;22.10;29.70;;;;;;2268305;61;20460;-59
2023/11/14 00:58:51;0.00;0.00;0.62;0.00;0.00;0.62;3.47;1.90;;;22.10;29.70;;;;;;2268412;61;20382;-59
2023/11/14 01:01:36;0.00;0.00;0.62;0.00;0.00;0.62;3.83;2.07;;;22.10;29.70;;;;;;2267846;61;20386;-63
2023/11/14 01:04:20;0.00;0.00;0.62;0.00;0.00;0.62;3.70;2.00;;;22.20;29.80;;;;;;2268892;61;20779;-57
2023/11/14 01:07:07;0.00;0.00;0.62;0.00;0.00;0.62;3.50;1.97;;;22.20;29.80;;;;;;2268129;61;20840;-57
2023/11/14 01:09:52;0.00;0.00;0.62;0.00;0.00;0.62;4.37;1.70;;;22.20;29.80;;;;;;2268791;61;20586;-59
2023/11/14 01:12:37;0.00;0.00;0.62;0.00;0.00;0.62;4.03;1.80;;;22.20;29.70;;;;;;2268558;61;20417;-61
2023/11/14 01:15:24;0.00;0.00;0.62;0.00;0.00;0.62;3.17;1.60;;;22.20;29.80;;;;;;2268451;61;20781;-61
2023/11/14 01:18:09;0.00;0.00;0.62;0.00;0.00;0.62;5.73;2.07;;;22.20;29.70;;;;;;2268569;61;20371;-60
2023/11/14 01:20:53;0.00;0.00;0.62;0.00;0.00;0.62;3.93;1.90;;;22.20;29.70;;;;;;2268240;61;20409;-61
2023/11/14 01:23:38;0.00;0.00;0.62;0.00;0.00;0.62;3.03;1.70;;;22.20;29.80;;;;;;2268521;61;20436;-59
2023/11/14 01:26:24;0.00;0.00;0.62;0.00;0.00;0.62;9.17;1.93;;;22.20;29.70;;;;;;2268257;61;20413;-60
2023/11/14 01:29:09;0.00;0.00;0.62;0.00;0.00;0.62;2.80;1.47;;;22.20;29.70;;;;;;2268761;61;20363;-58
2023/11/14 01:31:55;0.00;0.00;0.62;0.00;0.00;0.62;3.33;1.80;;;22.20;29.70;;;;;;2268026;61;20359;-59
2023/11/14 01:34:39;0.00;0.00;0.62;0.00;0.00;0.62;6.00;1.87;;;22.20;29.70;;;;;;2268306;61;20932;-61
2023/11/14 01:37:24;0.00;0.00;0.62;0.00;0.00;0.62;4.37;1.87;;;22.20;29.70;;;;;;2268476;61;20406;-67
2023/11/14 01:40:10;0.00;0.00;0.62;0.00;0.00;0.62;3.50;1.60;;;22.20;29.70;;;;;;2268109;61;20457;-60
2023/11/14 01:43:01;0.00;0.00;0.62;0.00;0.00;0.62;4.03;2.10;;;22.20;29.70;;;;;;2267929;61;20399;-60
2023/11/14 01:45:46;0.00;0.00;0.62;0.00;0.00;0.62;5.93;1.80;;;22.20;29.80;;;;;;2269124;61;20433;-62
2023/11/14 01:48:32;0.00;0.00;0.62;0.00;0.00;0.62;5.43;2.23;;;22.20;29.70;;;;;;2268026;61;20471;-63
2023/11/14 01:51:19;0.00;0.00;0.62;0.00;0.00;0.62;4.53;1.93;;;22.20;29.70;;;;;;2267985;61;20399;-61
2023/11/14 01:54:04;0.00;0.00;0.62;0.00;0.00;0.62;4.60;1.83;;;22.20;29.70;;;;;;2268298;61;20398;-61
2023/11/14 01:56:49;0.00;0.00;0.62;0.00;0.00;0.62;6.03;2.27;;;22.20;29.70;;;;;;2267983;61;20440;-63
2023/11/14 01:59:34;0.00;0.00;0.62;0.00;0.00;0.62;5.87;1.83;;;22.20;29.70;;;;;;2267937;61;20854;-62
2023/11/14 02:02:19;0.00;0.00;0.62;0.00;0.00;0.62;5.93;2.00;;;22.20;29.60;;;;;;2267443;61;20390;-58
2023/11/14 02:05:06;0.00;0.00;0.62;0.00;0.00;0.62;5.53;2.10;;;22.20;29.60;;;;;;2268412;61;20787;-63
2023/11/14 02:07:52;0.00;0.00;0.62;0.00;0.00;0.62;7.17;2.07;;;22.20;29.60;;;;;;2268446;61;20363;-62
2023/11/14 02:10:37;0.00;0.00;0.62;0.00;0.00;0.62;3.83;2.03;;;22.30;29.60;;;;;;2265063;61;20843;-62
2023/11/14 02:13:21;0.00;0.00;0.62;0.00;0.00;0.62;7.83;2.10;;;22.20;29.50;;;;;;2268132;61;20393;-63
2023/11/14 02:16:06;0.00;0.00;0.62;0.00;0.00;0.62;4.13;2.23;;;22.20;29.50;;;;;;2268249;61;20363;-63
2023/11/14 02:18:52;0.00;0.00;0.62;0.00;0.00;0.62;7.33;2.07;;;22.20;29.50;;;;;;2267973;61;20343;-61
2023/11/14 02:21:38;0.00;0.00;0.62;0.00;0.00;0.62;4.47;1.67;;;22.20;29.50;;;;;;2267623;61;20387;-63
2023/11/14 02:24:25;0.00;0.00;0.62;0.00;0.00;0.62;5.03;2.33;;;22.20;29.50;;;;;;2268068;61;20367;-63
2023/11/14 02:27:11;0.00;0.00;0.62;0.00;0.00;0.62;4.47;1.93;;;22.20;29.50;;;;;;2261558;61;20406;-61
2023/11/14 02:29:56;0.00;0.00;0.62;0.00;0.00;0.62;4.67;1.70;;;22.20;29.50;;;;;;2268097;61;20413;-59
2023/11/14 02:32:41;0.00;0.00;0.62;0.00;0.00;0.62;5.47;1.90;;;22.20;29.40;;;;;;2267397;61;20458;-62
2023/11/14 02:35:25;0.00;0.00;0.62;0.00;0.00;0.62;3.90;1.80;;;22.20;29.40;;;;;;2268271;61;20505;-63
2023/11/14 02:38:10;0.00;0.00;0.62;0.00;0.00;0.62;4.87;1.93;;;22.20;29.40;;;;;;2268110;61;20417;-61
2023/11/14 02:40:55;0.00;0.00;0.62;0.00;0.00;0.62;4.63;2.00;;;22.20;29.40;;;;;;2268323;61;20472;-61
2023/11/14 02:43:40;0.00;0.00;0.62;0.00;0.00;0.62;5.50;1.60;;;22.20;29.40;;;;;;2268004;61;20406;-60
2023/11/14 02:46:25;0.00;0.00;0.62;0.00;0.00;0.62;5.40;1.70;;;22.20;29.40;;;;;;2267458;61;20375;-62
2023/11/14 02:49:39;0.00;0.00;0.62;0.00;0.00;0.62;6.63;1.90;;;22.20;29.40;;;;;;2268403;61;20899;-61
2023/11/14 02:52:25;0.00;0.00;0.62;0.00;0.00;0.62;6.37;2.90;;;22.20;29.40;;;;;;2267844;61;20410;-61
2023/11/14 02:55:09;0.00;0.00;0.62;0.00;0.00;0.62;3.87;1.87;;;22.20;29.40;;;;;;2268232;61;20430;-62
2023/11/14 02:57:54;0.00;0.00;0.62;0.00;0.00;0.62;4.10;1.80;;;22.20;29.40;;;;;;2267867;61;20366;-61
2023/11/14 03:00:45;0.00;0.00;0.62;0.00;0.00;0.62;7.70;2.10;;;22.20;29.40;;;;;;2267795;61;20386;-63
2023/11/14 03:03:30;0.00;0.00;0.62;0.00;0.00;0.62;6.10;2.20;;;22.20;29.40;;;;;;2267933;61;20395;-63
2023/11/14 03:06:15;0.00;0.00;0.62;0.00;0.00;0.62;3.73;1.93;;;22.20;29.40;;;;;;2268130;61;20355;-61
2023/11/14 03:08:59;0.00;0.00;0.62;0.00;0.00;0.62;4.20;1.70;;;22.20;29.40;;;;;;2265696;61;20422;-62
2023/11/14 03:11:44;0.00;0.00;0.62;0.00;0.00;0.62;6.57;1.87;;;22.20;29.40;;;;;;2263837;61;20391;-59
2023/11/14 03:14:28;0.00;0.00;0.62;0.00;0.00;0.62;5.07;2.17;;;22.20;29.40;;;;;;2264763;61;20355;-60
2023/11/14 03:17:14;0.00;0.00;0.62;0.00;0.00;0.62;4.80;1.90;;;22.20;29.40;;;;;;2264134;61;20376;-61
2023/11/14 03:19:59;0.00;0.00;0.62;0.00;0.00;0.62;4.00;2.00;;;22.20;29.40;;;;;;2264665;61;20783;-61
2023/11/14 03:22:43;0.00;0.00;0.62;0.00;0.00;0.62;4.90;2.00;;;22.20;29.40;;;;;;2264064;61;20415;-62
2023/11/14 03:25:28;0.00;0.00;0.62;0.00;0.00;0.62;4.67;2.47;;;22.20;29.40;;;;;;2264791;61;20456;-61
2023/11/14 03:28:13;0.00;0.00;0.62;0.00;0.00;0.62;5.23;2.30;;;22.20;29.60;;;;;;2264545;61;20372;-60
2023/11/14 03:30:59;0.00;0.00;0.62;0.00;0.00;0.62;5.07;2.30;;;22.20;29.40;;;;;;2264072;61;20855;-61
2023/11/14 03:33:44;0.00;0.00;0.62;0.00;0.00;0.62;4.03;1.97;;;22.20;29.40;;;;;;2264338;61;20395;-61
2023/11/14 03:36:29;0.00;0.00;0.62;0.00;0.00;0.62;4.47;1.70;;;22.20;29.40;;;;;;2264614;61;20368;-63
2023/11/14 03:39:14;0.00;0.00;0.62;0.00;0.00;0.62;8.37;2.40;;;22.10;29.30;;;;;;2265049;61;20355;-62
2023/11/14 03:41:58;0.00;0.00;0.62;0.00;0.00;0.62;7.03;2.33;;;22.20;29.40;;;;;;2264844;61;20387;-60
2023/11/14 03:44:43;0.00;0.00;0.62;0.00;0.00;0.62;4.17;1.90;;;22.20;29.40;;;;;;2265185;61;20399;-61
2023/11/14 03:47:28;0.00;0.00;0.62;0.00;0.00;0.62;5.17;2.97;;;22.20;29.40;;;;;;2268718;61;20383;-60
2023/11/14 03:50:15;0.00;0.00;0.62;0.00;0.00;0.62;6.27;2.07;;;22.10;29.30;;;;;;2269030;61;20409;-61
2023/11/14 03:53:01;0.00;0.00;0.62;0.00;0.00;0.62;5.83;1.80;;;22.10;29.80;;;;;;2268354;61;20383;-62
2023/11/14 03:55:45;0.00;0.00;0.62;0.00;0.00;0.62;3.83;1.83;;;22.20;29.40;;;;;;2267961;61;20446;-62
2023/11/14 03:58:31;0.00;0.00;0.62;0.00;0.00;0.62;5.50;2.30;;;22.10;29.30;;;;;;2268809;61;20409;-61
2023/11/14 04:01:16;0.00;0.00;0.62;0.00;0.00;0.62;6.90;1.90;;;22.10;29.30;;;;;;2268601;61;20367;-61
2023/11/14 04:04:01;0.00;0.00;0.62;0.00;0.00;0.62;4.53;2.10;;;22.10;29.30;;;;;;2271395;57;20383;-61
2023/11/14 04:06:47;0.00;0.00;0.62;0.00;0.00;0.62;5.23;1.80;;;22.10;29.30;;;;;;2269432;61;20362;-62
2023/11/14 04:09:32;0.00;0.00;0.62;0.00;0.00;0.62;5.10;2.00;;;22.10;29.30;;;;;;2269300;61;20852;-61
2023/11/14 04:12:17;0.00;0.00;0.62;0.00;0.00;0.62;6.80;2.40;;;22.10;29.30;;;;;;2268952;61;20379;-61
2023/11/14 04:15:01;0.00;0.00;0.62;0.00;0.00;0.62;3.03;1.90;;;22.10;29.30;;;;;;2268463;61;20371;-61
2023/11/14 04:17:46;0.00;0.00;0.62;0.00;0.00;0.62;4.40;1.50;;;22.10;29.30;;;;;;2269212;61;20892;-60
2023/11/14 04:20:30;0.00;0.00;0.62;0.00;0.00;0.62;4.70;1.80;;;22.10;29.30;;;;;;2269270;61;20410;-62
2023/11/14 04:23:16;0.00;0.00;0.62;0.00;0.00;0.62;3.97;1.83;;;22.10;29.30;;;;;;2269117;61;20441;-60
2023/11/14 04:26:00;0.00;0.00;0.62;0.00;0.00;0.62;5.20;1.80;;;22.10;29.30;;;;;;2267946;61;21013;-61
2023/11/14 04:28:45;0.00;0.00;0.62;0.00;0.00;0.62;4.57;1.93;;;22.10;29.30;;;;;;2269367;61;20895;-61
2023/11/14 04:31:30;0.00;0.00;0.62;0.00;0.00;0.62;5.00;1.93;;;22.10;29.30;;;;;;2269204;61;20367;-62
2023/11/14 04:34:14;0.00;0.00;0.62;0.00;0.00;0.62;5.50;2.00;;;22.10;29.30;;;;;;2269240;61;20359;-61
2023/11/14 04:36:59;0.00;0.00;0.62;0.00;0.00;0.62;4.80;1.67;;;22.10;29.30;;;;;;2268753;61;20853;-62
2023/11/14 04:39:45;0.00;0.00;0.62;0.00;0.00;0.62;4.87;1.73;;;22.10;29.30;;;;;;2269289;61;20359;-61
2023/11/14 04:42:30;0.00;0.00;0.62;0.00;0.00;0.62;2.93;1.20;;;22.10;29.40;;;;;;2269109;61;20924;-60
2023/11/14 04:45:15;0.00;0.00;0.62;0.00;0.00;0.62;4.33;2.10;;;22.10;29.40;;;;;;2268720;61;20673;-60
2023/11/14 04:48:01;0.00;0.00;0.62;0.00;0.00;0.62;3.37;1.60;;;22.00;29.30;;;;;;2269152;61;20355;-59
2023/11/14 04:50:46;0.00;0.00;0.62;0.00;0.00;0.62;4.70;1.90;;;22.10;29.40;;;;;;2269362;61;20864;-58
2023/11/14 04:53:30;0.00;0.00;0.62;0.00;0.00;0.62;5.20;1.70;;;22.00;29.30;;;;;;2268537;61;20374;-60
2023/11/14 04:56:16;0.00;0.00;0.62;0.00;0.00;0.62;4.80;2.13;;;22.10;29.40;;;;;;2269158;61;20405;-56
2023/11/14 04:59:01;0.00;0.00;0.62;0.00;0.00;0.62;6.70;2.13;;;22.00;29.30;;;;;;2269026;61;21339;-59
2023/11/14 05:01:47;0.00;0.00;0.62;0.00;0.00;0.62;4.60;2.10;;;22.00;29.30;;;;;;2268556;61;20888;-61
2023/11/14 05:04:32;0.00;0.00;0.62;0.00;0.00;0.62;5.73;2.23;;;22.00;29.40;;;;;;2268547;61;20359;-60
2023/11/14 05:07:16;0.00;0.00;0.62;0.00;0.00;0.62;5.37;2.53;;;22.00;29.40;;;;;;2268930;61;20359;-62
2023/11/14 05:10:01;0.00;0.00;0.62;0.00;0.00;0.62;4.80;1.90;;;22.00;29.40;;;;;;2268690;61;20359;-63
2023/11/14 05:12:47;0.00;0.00;0.62;0.00;0.00;0.62;5.83;2.10;;;22.00;29.40;;;;;;2268684;61;20486;-58
2023/11/14 05:15:31;0.00;0.00;0.62;0.00;0.00;0.62;3.97;1.70;;;22.00;29.40;;;;;;2268568;61;20407;-58
2023/11/14 05:18:16;0.00;0.00;0.62;0.00;0.00;0.62;3.90;1.53;;;22.00;29.40;;;;;;2269482;61;20371;-58
2023/11/14 05:21:01;0.00;0.00;0.62;0.00;0.00;0.62;4.03;1.80;;;22.00;29.40;;;;;;2269175;61;20359;-60
2023/11/14 05:23:45;0.00;0.00;0.62;0.00;0.00;0.62;4.47;1.53;;;22.00;29.40;;;;;;2268778;61;20435;-60
2023/11/14 05:26:30;0.00;0.00;0.62;0.00;0.00;0.62;3.30;1.50;;;22.00;29.40;;;;;;2269189;61;20363;-61
2023/11/14 05:29:16;0.00;0.00;0.62;0.00;0.00;0.62;4.63;1.63;;;22.00;29.40;;;;;;2268361;61;20383;-60
2023/11/14 05:32:00;0.00;0.00;0.62;0.00;0.00;0.62;4.87;1.57;;;22.00;29.40;;;;;;2268780;61;20467;-60
2023/11/14 05:34:45;0.00;0.00;0.62;0.00;0.00;0.62;5.40;1.83;;;22.00;29.40;;;;;;2269660;61;20390;-59
2023/11/14 05:37:30;0.00;0.00;0.62;0.00;0.00;0.62;4.13;1.73;;;22.00;29.50;;;;;;2269231;61;20385;-61
2023/11/14 05:40:15;0.00;0.00;0.62;0.00;0.00;0.62;5.10;1.60;;;22.00;29.50;;;;;;2268816;61;20889;-60
2023/11/14 05:43:02;0.00;0.00;0.62;0.00;0.00;0.62;3.43;1.50;;;22.00;29.50;;;;;;2268470;61;20810;-64
2023/11/14 05:45:50;0.00;0.00;0.62;0.00;0.00;0.62;3.77;1.37;;;22.00;29.50;;;;;;2269431;61;20367;-60
2023/11/14 05:48:35;0.00;0.00;0.62;0.00;0.00;0.62;3.10;1.30;;;22.00;29.50;;;;;;2268970;61;20363;-61
2023/11/14 05:51:20;0.00;0.00;0.62;0.00;0.00;0.62;2.83;1.47;;;22.00;29.50;;;;;;2268131;61;20372;-60
2023/11/14 05:54:05;0.00;0.00;0.62;0.00;0.00;0.62;3.23;1.27;;;22.00;29.50;;;;;;2268527;61;20858;-59
2023/11/14 05:56:50;0.00;0.00;0.62;0.00;0.00;0.62;3.40;1.40;;;22.00;29.50;;;;;;2268697;61;20358;-60
2023/11/14 05:59:34;0.00;0.00;0.62;0.00;0.00;0.62;3.63;1.77;;;22.00;29.60;;;;;;2268466;61;20375;-55
2023/11/14 06:02:20;0.00;0.00;0.62;0.00;0.00;0.62;3.77;1.47;;;22.00;29.60;;;;;;2412637;53;20391;-59
2023/11/14 06:05:07;0.00;0.00;0.62;0.00;0.00;0.62;2.50;1.37;;;22.00;29.70;;;;;;2268687;61;20371;-60
2023/11/14 06:07:51;0.00;0.00;0.62;0.00;0.00;0.62;4.63;2.13;;;21.90;29.60;;;;;;2269048;61;20374;-58
2023/11/14 06:10:36;0.00;0.00;0.62;0.00;0.00;0.62;3.67;1.60;;;22.00;29.70;;;;;;2268531;61;20413;-61
2023/11/14 06:13:21;0.00;0.00;0.62;0.00;0.00;0.62;4.93;1.60;;;22.00;30.20;;;;;;2268069;61;20382;-64
2023/11/14 06:16:07;0.00;0.00;0.62;0.00;0.00;0.62;4.23;1.40;;;22.00;29.70;;;;;;2268412;61;20409;-58
2023/11/14 06:18:53;0.00;0.00;0.62;0.00;0.00;0.62;3.17;1.60;;;22.00;29.70;;;;;;2268842;61;20367;-60
2023/11/14 06:21:39;0.00;0.00;0.62;0.00;0.00;0.62;4.20;1.50;;;22.00;29.70;;;;;;2267976;61;20444;-61
2023/11/14 06:24:23;0.00;0.00;0.62;0.00;0.00;0.62;7.43;1.93;;;22.00;29.70;;;;;;2268975;61;20371;-62
2023/11/14 06:27:08;0.00;0.00;0.62;0.00;0.00;0.62;6.13;1.80;;;22.00;29.70;;;;;;2269088;61;20383;-58
2023/11/14 06:29:53;0.00;0.00;0.62;0.00;0.00;0.62;3.77;1.57;;;22.00;29.70;;;;;;2268358;61;20387;-60
2023/11/14 06:32:38;0.00;0.00;0.62;0.00;0.00;0.62;3.80;1.87;;;22.00;29.70;;;;;;2268204;61;20379;-58
2023/11/14 06:35:24;0.00;0.00;0.62;0.00;0.00;0.62;3.97;1.73;;;22.00;29.70;;;;;;2268521;61;20417;-61
2023/11/14 06:38:08;0.00;0.00;0.62;0.00;0.00;0.62;4.97;1.90;;;22.00;29.80;;;;;;2268842;61;20403;-59
2023/11/14 06:40:54;0.00;0.00;0.62;0.00;0.00;0.62;4.87;2.17;;;22.00;29.80;;;;;;2269050;61;20403;-59
2023/11/14 06:43:39;0.00;0.00;0.62;0.00;0.00;0.62;6.00;2.27;;;22.00;29.80;;;;;;2268558;61;20398;-59
2023/11/14 06:46:23;0.00;0.00;0.62;0.00;0.00;0.62;5.67;2.23;;;22.00;29.80;;;;;;2268915;61;20816;-60
2023/11/14 06:49:08;0.00;0.00;0.62;0.00;0.00;0.62;6.43;2.70;;;22.00;29.80;;;;;;2268777;61;20370;-58
2023/11/14 06:51:55;0.00;0.00;0.62;0.00;0.00;0.62;5.70;2.80;;;22.00;29.70;;;;;;2269756;57;20371;-61
2023/11/14 06:54:39;0.00;0.00;0.62;0.00;0.00;0.62;4.97;3.03;;;22.00;29.70;;;;;;2269326;61;20367;-61
2023/11/14 06:57:24;0.00;0.00;0.62;0.00;0.00;0.62;4.93;2.60;;;22.00;29.80;;;;;;2269039;61;20409;-59
2023/11/14 07:00:10;0.00;0.00;0.62;0.00;0.00;0.62;7.13;2.30;;;22.00;29.80;;;;;;2269654;61;20767;-58
2023/11/14 07:02:55;0.00;0.00;0.62;0.00;0.00;0.62;7.50;2.70;;;22.00;29.80;;;;;;2268949;61;20437;-60
2023/11/14 07:05:40;0.00;0.00;0.62;0.00;0.00;0.62;5.77;2.67;;;22.00;29.80;;;;;;2269343;61;20362;-62
2023/11/14 07:08:29;0.00;0.00;0.62;0.00;0.00;0.62;8.30;3.40;;;22.00;29.80;;;;;;2269422;61;20502;-61
2023/11/14 07:11:13;0.00;0.00;0.62;0.00;0.00;0.62;6.73;3.60;;;22.00;29.80;;;;;;2268891;61;20455;-61
2023/11/14 07:13:58;0.00;0.00;0.62;0.00;0.00;0.62;7.43;3.57;;;22.00;29.80;;;;;;2268881;61;20433;-60
2023/11/14 07:16:43;0.00;0.00;0.62;0.00;0.00;0.62;6.37;3.63;;;22.00;29.80;;;;;;2269392;61;20383;-60
2023/11/14 07:19:28;0.00;0.00;0.62;0.00;0.00;0.62;5.53;3.07;;;22.00;29.80;;;;;;2268946;61;20406;-60
2023/11/14 07:22:13;0.00;0.00;0.62;0.00;0.00;0.62;5.30;3.30;;;22.00;29.80;;;;;;2268537;61;20488;-61
2023/11/14 07:24:59;0.00;0.00;0.62;0.00;0.00;0.62;4.80;2.77;;;22.00;29.80;;;;;;2269364;61;20409;-67
2023/11/14 07:27:46;0.00;0.00;0.62;0.00;0.00;0.62;6.10;3.63;;;22.00;29.80;;;;;;2268958;61;20444;-61
2023/11/14 07:30:33;0.00;0.00;0.62;0.00;0.00;0.62;5.00;3.10;;;22.00;29.80;;;;;;2269285;61;20390;-57
2023/11/14 07:33:18;0.00;0.00;0.62;0.00;0.00;0.62;6.67;3.30;;;22.00;30.20;;;;;;2268388;61;20556;-60
2023/11/14 07:36:03;0.00;0.00;0.62;0.00;0.00;0.62;6.67;2.97;;;22.00;29.80;;;;;;2269791;61;20358;-61
2023/11/14 07:38:47;0.00;0.00;0.62;0.00;0.00;0.62;6.30;3.43;;;22.00;29.80;;;;;;2269413;61;20362;-61
2023/11/14 07:41:33;0.00;0.00;0.62;0.00;0.00;0.62;4.30;3.30;;;22.00;29.80;;;;;;2269918;61;20362;-60
2023/11/14 07:44:20;0.00;0.00;0.62;0.00;0.00;0.62;6.30;3.60;;;22.00;29.80;;;;;;2269497;61;20351;-61
2023/11/14 07:47:05;0.00;0.00;0.62;0.00;0.00;0.62;6.00;3.13;;;22.00;29.80;;;;;;2270091;61;20451;-60
2023/11/14 07:49:50;0.00;0.00;0.62;0.00;0.00;0.62;5.57;3.23;;;22.00;29.80;;;;;;2269165;61;20366;-58
2023/11/14 07:52:34;0.00;0.00;0.62;0.00;0.00;0.62;5.03;3.60;;;22.00;30.20;;;;;;2269430;61;20424;-60
2023/11/14 07:55:19;0.00;0.00;0.62;0.00;0.00;0.62;4.63;3.40;;;22.00;29.80;;;;;;2269987;61;20390;-61
2023/11/14 07:58:05;0.00;0.00;0.62;0.00;0.00;0.62;6.10;3.70;;;22.00;29.80;;;;;;2269497;61;20899;-58
2023/11/14 08:00:50;0.00;0.00;0.62;0.00;0.00;0.62;4.10;2.70;;;22.00;29.80;;;;;;2269756;61;20364;-57
2023/11/14 08:03:34;0.00;0.00;0.62;0.00;0.00;0.62;7.33;3.60;;;22.00;29.80;;;;;;2269432;61;20440;-59
2023/11/14 08:06:19;0.00;0.00;0.62;0.00;0.00;0.62;4.33;3.40;;;22.00;29.80;;;;;;2269498;61;20342;-60
2023/11/14 08:09:04;0.00;0.00;0.62;0.00;0.00;0.62;7.40;3.57;;;22.00;29.70;;;;;;2269981;61;20383;-60
2023/11/14 08:11:49;0.00;0.00;0.62;0.00;0.00;0.62;5.20;3.17;;;22.00;29.80;;;;;;2269237;61;20973;-60
2023/11/14 08:14:35;0.00;0.00;0.62;0.00;0.00;0.62;5.43;3.03;;;22.00;29.80;;;;;;2269572;61;20620;-60
2023/11/14 08:17:19;0.00;0.00;0.62;0.00;0.00;0.62;6.30;3.20;;;22.00;29.80;;;;;;2269225;61;20523;-61
2023/11/14 08:20:05;0.00;0.00;0.62;0.00;0.00;0.62;6.10;3.23;;;22.00;29.80;;;;;;2269465;61;20409;-60
2023/11/14 08:22:51;0.00;0.00;0.62;0.00;0.00;0.62;7.23;3.30;;;22.00;29.70;;;;;;2269429;61;20790;-60
2023/11/14 08:25:35;0.00;0.00;0.62;0.00;0.00;0.62;6.03;3.40;;;22.00;29.80;;;;;;2269454;61;20830;-61
2023/11/14 08:28:20;0.00;0.00;0.62;0.00;0.00;0.62;6.70;3.70;;;22.00;29.80;;;;;;2269680;61;20359;-60
2023/11/14 08:31:06;0.00;0.00;0.62;0.00;0.00;0.62;7.00;3.00;;;22.00;29.70;;;;;;2269919;61;20447;-60
2023/11/14 08:33:51;0.00;0.00;0.62;0.00;0.00;0.62;6.20;2.97;;;22.00;29.80;;;;;;2269371;61;20429;-61
2023/11/14 08:36:35;0.00;0.00;0.62;0.00;0.00;0.62;7.03;3.47;;;22.00;29.70;;;;;;2269681;61;20364;-60
2023/11/14 08:39:20;0.00;0.00;0.62;0.00;0.00;0.62;7.47;3.33;;;22.00;29.70;;;;;;2269114;61;20860;-58
2023/11/14 08:42:11;0.00;0.00;0.62;0.00;0.00;0.62;6.27;3.43;;;22.00;29.80;;;;;;2269241;61;20480;-61
2023/11/14 08:44:59;0.00;0.00;0.62;0.00;0.00;0.62;7.70;3.30;;;22.00;29.80;;;;;;2269103;61;20419;-59
2023/11/14 08:47:45;0.00;0.00;0.62;0.00;0.00;0.62;3.00;2.33;;;22.00;29.80;;;;;;2269528;61;20892;-62
2023/11/14 08:50:30;0.00;0.00;0.62;0.00;0.00;0.62;5.30;2.87;;;22.00;29.80;;;;;;2268684;61;20499;-61
2023/11/14 08:53:15;0.00;0.00;0.62;0.00;0.00;0.62;6.73;2.70;;;22.00;29.80;;;;;;2268755;61;20394;-59
2023/11/14 08:55:59;0.00;0.00;0.62;0.00;0.00;0.62;4.10;2.87;;;22.00;29.80;;;;;;2267933;61;20896;-61
2023/11/14 08:58:44;0.00;0.00;0.62;0.00;0.00;0.62;5.13;2.67;;;22.00;29.80;;;;;;2268867;61;20394;-59
2023/11/14 09:01:29;0.00;0.00;0.62;0.00;0.00;0.62;5.17;3.10;;;22.00;29.90;;;;;;2268726;61;20366;-58
2023/11/14 09:04:15;0.00;0.00;0.62;0.00;0.00;0.62;5.23;3.27;;;22.00;29.90;;;;;;2268421;61;20395;-58
2023/11/14 09:06:59;0.00;0.00;0.62;0.00;0.00;0.62;4.20;3.00;;;22.00;29.90;;;;;;2268783;61;20407;-64
2023/11/14 09:10:16;0.00;0.00;0.62;0.00;0.00;0.62;5.73;2.97;;;22.00;29.90;;;;;;2273839;47;20911;-61
2023/11/14 09:13:00;0.00;0.00;0.62;0.00;0.00;0.62;6.47;3.23;;;22.00;30.00;;;;;;2263374;61;20430;-59
2023/11/14 09:15:46;0.00;0.00;0.62;0.00;0.00;0.62;6.67;2.60;;;22.00;30.00;;;;;;2265090;61;20423;-60
2023/11/14 09:18:32;0.00;0.00;0.62;0.00;0.00;0.62;5.90;2.70;;;22.00;30.00;;;;;;2265217;61;20539;-61
2023/11/14 09:21:18;0.00;0.00;0.62;0.00;0.00;0.62;3.63;2.40;;;22.10;30.00;;;;;;2258389;61;20357;-58
2023/11/14 09:24:04;0.00;0.00;0.62;0.00;0.00;0.62;3.70;2.50;;;22.10;30.00;;;;;;2261093;61;20392;-60
2023/11/14 09:26:49;0.00;0.00;0.62;0.00;0.00;0.62;6.20;3.50;;;22.10;30.00;;;;;;2257836;61;20407;-61
2023/11/14 09:29:34;0.00;0.00;0.62;0.00;0.00;0.62;4.63;2.50;;;22.10;30.00;;;;;;2257685;61;20388;-57
2023/11/14 09:32:19;0.00;0.00;0.62;0.00;0.00;0.62;8.30;2.77;;;22.10;30.00;;;;;;2260812;61;20765;-59
2023/11/14 09:35:04;0.00;0.00;0.62;0.00;0.00;0.62;4.70;2.77;;;22.10;30.10;;;;;;2260951;61;20349;-61
2023/11/14 09:37:51;0.00;0.00;0.62;0.00;0.00;0.62;6.30;2.83;;;22.10;30.00;;;;;;2260946;61;20406;-65
2023/11/14 09:40:36;0.00;0.00;0.62;0.00;0.00;0.62;4.37;2.33;;;22.10;30.10;;;;;;2260756;61;20388;-60
2023/11/14 09:43:22;0.00;0.00;0.62;0.00;0.00;0.62;6.10;2.13;;;22.10;30.10;;;;;;2260841;61;20432;-61
2023/11/14 09:46:10;0.00;0.00;0.62;0.00;0.00;0.62;4.47;2.60;;;22.10;30.10;;;;;;2261184;61;20443;-55
2023/11/14 09:48:56;0.00;0.00;0.62;0.00;0.00;0.62;4.40;2.40;;;22.10;30.10;;;;;;2260896;61;20381;-59
2023/11/14 09:51:44;0.00;0.00;0.62;0.00;0.00;0.62;4.97;2.57;;;22.10;30.10;;;;;;2260737;61;20757;-60
2023/11/14 09:54:32;0.00;0.00;0.62;0.00;0.00;0.62;4.63;2.30;;;22.20;30.20;;;;;;2262004;61;20350;-58
2023/11/14 09:57:18;0.00;0.00;0.62;0.00;0.00;0.62;3.30;2.20;;;22.20;30.20;;;;;;2261106;61;20887;-62
2023/11/14 10:00:11;0.00;0.00;0.62;0.00;0.00;0.62;6.03;2.77;;;22.20;30.20;;;;;;2261169;61;20396;-62
2023/11/14 10:02:57;0.00;0.00;0.62;0.00;0.00;0.62;3.83;2.00;;;22.20;30.20;;;;;;2260309;61;20475;-59
2023/11/14 10:05:42;0.00;0.00;0.62;0.00;0.00;0.62;6.20;2.57;;;22.20;30.20;;;;;;2260815;61;20890;-56
2023/11/14 10:08:28;0.00;0.00;0.62;0.00;0.00;0.62;4.57;2.50;;;22.20;30.20;;;;;;2260711;61;20813;-62
2023/11/14 10:11:14;0.00;0.00;0.62;0.00;0.00;0.62;3.63;2.50;;;22.20;30.20;;;;;;2260814;61;20412;-62
2023/11/14 10:14:04;0.00;0.00;0.62;0.00;0.00;0.62;3.40;2.33;;;22.20;30.10;;;;;;2260946;61;20405;-61
2023/11/14 10:16:58;0.00;0.00;0.62;0.00;0.00;0.62;3.50;2.10;;;22.20;30.20;;;;;;2261124;61;20492;-58
2023/11/14 10:19:57;0.00;0.00;0.62;0.00;0.00;0.62;4.17;2.23;;;22.30;30.20;;;;;;2257129;61;20392;-62
2023/11/14 10:22:46;0.00;0.00;0.62;0.00;0.00;0.62;6.10;2.10;;;22.30;30.90;;;;;;2256002;61;20389;-59
2023/11/14 10:25:32;0.00;0.00;0.62;0.00;0.00;0.62;3.97;1.93;;;22.20;30.20;;;;;;2256886;61;20365;-62
2023/11/14 10:28:18;0.00;0.00;0.62;0.00;0.00;0.62;3.13;1.90;;;22.30;30.20;;;;;;2256836;61;20385;-60
2023/11/14 10:31:03;0.00;0.00;0.62;0.00;0.00;0.62;3.70;2.27;;;22.30;30.20;;;;;;2256134;61;20480;-61
2023/11/14 10:33:48;0.00;0.00;0.62;0.00;0.00;0.62;2.70;1.73;;;22.30;30.20;;;;;;2255930;61;20374;-62
2023/11/14 10:36:46;0.00;0.00;0.62;0.00;0.00;0.62;3.43;1.70;;;22.30;30.20;;;;;;2256210;61;20365;-62
2023/11/14 10:39:30;0.00;0.00;0.62;0.00;0.00;0.62;3.63;2.10;;;22.30;30.20;;;;;;2256603;61;20474;-61
2023/11/14 10:42:16;0.00;0.00;0.62;0.00;0.00;0.62;4.13;1.70;;;22.30;30.20;;;;;;2256046;61;20442;-60
2023/11/14 10:45:10;0.00;0.00;0.62;0.00;0.00;0.62;3.10;1.87;;;22.30;30.20;;;;;;2255983;61;20374;-61
2023/11/14 10:47:56;0.00;0.00;0.62;0.00;0.00;0.62;4.17;2.03;;;22.30;30.20;;;;;;2256711;61;20365;-61
2023/11/14 10:50:42;0.00;0.00;0.62;0.00;0.00;0.62;4.33;2.27;;;22.30;30.20;;;;;;2257226;61;20446;-58
2023/11/14 10:53:30;0.00;0.00;0.62;0.00;0.00;0.62;8.33;3.20;;;22.30;30.20;;;;;;2262968;61;20409;-62